createdAt,value
2018-07-23T00:01:04.075Z,97.60
2018-07-23T00:03:31.869Z,99.10
2018-07-23T00:05:59.678Z,98.40
2018-07-23T00:08:27.556Z,98.90
2018-07-23T00:10:55.425Z,98.60
2018-07-23T00:13:24.237Z,98.40
2018-07-23T00:15:52.044Z,98.50
2018-07-23T00:18:20.924Z,97.80
2018-07-23T00:20:48.746Z,97.20
2018-07-23T00:23:16.521Z,97.60
2018-07-23T00:25:44.301Z,97.70
2018-07-23T00:28:12.149Z,98.70
2018-07-23T00:30:39.944Z,98.90
2018-07-23T00:33:07.806Z,98.70
2018-07-23T00:35:35.586Z,98.80
2018-07-23T00:38:03.447Z,97.80
2018-07-23T00:40:31.259Z,97.80
2018-07-23T00:42:59.046Z,98.80
2018-07-23T00:45:26.920Z,98.60
2018-07-23T00:47:54.645Z,98.20
2018-07-23T00:50:29.518Z,97.60
2018-07-23T00:52:57.331Z,97.10
2018-07-23T00:55:25.164Z,97.20
2018-07-23T00:57:53.242Z,96.80
2018-07-23T01:00:21.174Z,96.00
2018-07-23T01:02:48.993Z,95.50
2018-07-23T01:05:17.818Z,95.40
2018-07-23T01:07:45.613Z,95.50
2018-07-23T01:10:13.436Z,94.80
2018-07-23T01:12:41.262Z,94.50
2018-07-23T01:15:09.154Z,94.20
2018-07-23T01:17:37.000Z,94.00
2018-07-23T01:20:04.898Z,93.90
2018-07-23T01:22:32.793Z,94.00
2018-07-23T01:25:00.604Z,94.20
2018-07-23T01:27:29.535Z,93.80
2018-07-23T01:29:57.315Z,93.70
2018-07-23T01:32:25.161Z,94.00
2018-07-23T01:34:53.015Z,93.40
2018-07-23T01:37:21.865Z,93.40
2018-07-23T01:39:49.731Z,93.80
2018-07-23T01:42:17.550Z,93.80
2018-07-23T01:44:45.319Z,93.30
2018-07-23T01:47:13.801Z,93.00
2018-07-23T01:49:41.672Z,92.80
2018-07-23T01:54:35.274Z,92.60
2018-07-23T01:57:03.130Z,92.80
2018-07-23T01:59:30.919Z,92.80
2018-07-23T02:01:58.861Z,92.70
2018-07-23T02:04:26.736Z,92.70
2018-07-23T02:06:54.555Z,92.70
2018-07-23T02:09:22.428Z,92.70
2018-07-23T02:11:50.251Z,92.60
2018-07-23T02:14:18.185Z,92.50
2018-07-23T02:16:46.066Z,92.50
2018-07-23T02:19:13.889Z,92.50
2018-07-23T02:21:41.714Z,92.60
2018-07-23T02:24:09.572Z,92.50
2018-07-23T02:26:37.386Z,92.60
2018-07-23T02:29:05.199Z,92.60
2018-07-23T02:31:33.132Z,92.60
2018-07-23T02:34:00.938Z,92.50
2018-07-23T02:36:28.741Z,92.50
2018-07-23T02:38:57.563Z,92.30
2018-07-23T02:41:25.450Z,92.50
2018-07-23T02:43:53.254Z,92.60
2018-07-23T02:46:21.089Z,92.30
2018-07-23T02:48:48.935Z,92.40
2018-07-23T02:51:16.747Z,92.70
2018-07-23T02:54:10.626Z,92.30
2018-07-23T02:56:38.522Z,92.40
2018-07-23T02:59:06.346Z,92.50
2018-07-23T03:01:34.173Z,92.40
2018-07-23T03:04:02.024Z,92.50
2018-07-23T03:06:29.805Z,92.90
2018-07-23T03:08:57.828Z,92.80
2018-07-23T03:11:26.003Z,92.90
2018-07-23T03:13:53.825Z,93.10
2018-07-23T03:16:21.678Z,93.30
2018-07-23T03:18:49.890Z,93.80
2018-07-23T03:21:17.683Z,93.60
2018-07-23T03:23:45.479Z,93.80
2018-07-23T03:26:13.313Z,93.90
2018-07-23T03:28:41.135Z,94.00
2018-07-23T03:31:08.943Z,94.20
2018-07-23T03:33:36.726Z,94.30
2018-07-23T03:36:04.593Z,94.70
2018-07-23T03:38:32.389Z,94.60
2018-07-23T03:41:00.194Z,94.90
2018-07-23T03:43:27.985Z,95.20
2018-07-23T03:45:55.755Z,95.40
2018-07-23T03:48:23.583Z,95.40
2018-07-23T03:50:51.354Z,95.50
2018-07-23T03:53:19.116Z,96.20
2018-07-23T03:55:46.865Z,96.50
2018-07-23T03:58:14.645Z,96.20
2018-07-23T04:00:42.398Z,96.80
2018-07-23T04:03:10.115Z,97.50
2018-07-23T04:05:37.896Z,97.80
2018-07-23T04:08:05.688Z,98.30
2018-07-23T04:10:34.539Z,98.10
2018-07-23T04:13:02.372Z,97.60
2018-07-23T04:15:55.186Z,98.10
2018-07-23T04:18:23.089Z,97.50
2018-07-23T04:20:50.921Z,98.30
2018-07-23T04:23:18.716Z,98.00
2018-07-23T04:25:46.524Z,98.50
2018-07-23T04:28:14.266Z,98.50
2018-07-23T04:30:42.110Z,98.30
2018-07-23T04:33:09.884Z,98.20
2018-07-23T04:35:38.661Z,98.40
2018-07-23T04:38:06.429Z,98.60
2018-07-23T04:40:34.216Z,98.40
2018-07-23T04:43:01.998Z,98.20
2018-07-23T04:45:33.309Z,97.80
2018-07-23T04:48:01.064Z,97.60
2018-07-23T04:50:29.419Z,97.60
2018-07-23T04:56:13.736Z,97.30
2018-07-23T04:58:41.658Z,97.00
2018-07-23T05:01:09.647Z,96.90
2018-07-23T05:03:37.716Z,96.90
2018-07-23T05:06:18.378Z,96.50
2018-07-23T05:08:46.288Z,96.40
2018-07-23T05:11:15.463Z,96.10
2018-07-23T05:13:43.421Z,95.80
2018-07-23T05:16:17.368Z,95.50
2018-07-23T05:18:45.317Z,95.20
2018-07-23T05:21:20.382Z,94.90
2018-07-23T05:23:48.271Z,94.70
2018-07-23T05:26:17.345Z,94.30
2018-07-23T05:28:45.202Z,94.30
2018-07-23T05:31:14.295Z,94.40
2018-07-23T05:33:42.263Z,94.00
2018-07-23T05:36:12.233Z,93.90
2018-07-23T05:38:40.270Z,93.60
2018-07-23T05:41:08.230Z,93.30
2018-07-23T05:43:36.206Z,92.90
2018-07-23T05:46:05.274Z,92.50
2018-07-23T05:48:33.211Z,92.40
2018-07-23T05:51:01.174Z,92.50
2018-07-23T05:53:29.057Z,92.10
2018-07-23T05:55:56.916Z,92.30
2018-07-23T05:58:24.821Z,91.70
2018-07-23T06:00:52.605Z,91.60
2018-07-23T06:03:21.544Z,92.10
2018-07-23T06:05:49.353Z,92.00
2018-07-23T06:08:17.350Z,91.90
2018-07-23T06:10:45.113Z,92.10
2018-07-23T06:13:14.088Z,91.70
2018-07-23T06:15:41.800Z,91.90
2018-07-23T06:18:09.787Z,91.90
2018-07-23T06:20:37.624Z,91.60
2018-07-23T06:23:05.556Z,90.80
2018-07-23T06:25:33.495Z,90.40
2018-07-23T06:28:01.372Z,90.60
2018-07-23T06:30:30.227Z,90.50
2018-07-23T06:32:58.027Z,90.50
2018-07-23T06:35:25.890Z,90.30
2018-07-23T06:37:53.711Z,90.10
2018-07-23T06:40:23.640Z,89.70
2018-07-23T06:42:51.626Z,89.20
2018-07-23T06:45:20.560Z,88.40
2018-07-23T06:47:48.419Z,89.20
2018-07-23T06:50:17.871Z,89.00
2018-07-23T06:52:45.765Z,88.50
2018-07-23T06:55:13.582Z,89.40
2018-07-23T06:57:47.952Z,89.30
2018-07-23T07:00:15.927Z,87.80
2018-07-23T07:02:43.881Z,87.80
2018-07-23T07:05:11.828Z,87.80
2018-07-23T07:07:39.893Z,86.10
2018-07-23T07:10:07.926Z,85.50
2018-07-23T07:12:52.767Z,87.00
2018-07-23T07:15:28.869Z,86.60
2018-07-23T07:17:56.656Z,86.80
2018-07-23T07:23:59.221Z,84.80
2018-07-23T07:26:27.040Z,83.50
2018-07-23T07:29:25.274Z,82.60
2018-07-23T07:31:53.066Z,84.10
2018-07-23T07:34:25.769Z,82.50
2018-07-23T07:36:53.612Z,80.00
2018-07-23T07:39:21.635Z,78.70
2018-07-23T07:41:49.460Z,80.20
2018-07-23T07:44:17.267Z,82.90
2018-07-23T07:46:46.277Z,80.80
2018-07-23T07:49:14.079Z,80.90
2018-07-23T07:51:42.026Z,79.20
2018-07-23T07:54:09.867Z,79.20
2018-07-23T07:56:37.993Z,78.50
2018-07-23T07:59:05.823Z,77.90
2018-07-23T08:01:33.916Z,78.70
2018-07-23T08:04:01.830Z,77.70
2018-07-23T08:06:31.891Z,76.80
2018-07-23T08:08:59.692Z,76.10
2018-07-23T08:15:02.309Z,75.70
2018-07-23T08:17:30.334Z,75.50
2018-07-23T08:20:01.227Z,73.40
2018-07-23T08:22:30.163Z,73.60
2018-07-23T08:25:24.852Z,74.40
2018-07-23T08:27:52.759Z,73.60
2018-07-23T08:30:20.641Z,72.70
2018-07-23T08:32:48.511Z,74.30
2018-07-23T08:35:16.572Z,73.10
2018-07-23T08:37:44.558Z,72.00
2018-07-23T08:40:12.504Z,70.80
2018-07-23T08:42:40.415Z,69.90
2018-07-23T08:45:08.327Z,69.70
2018-07-23T08:47:37.111Z,70.80
2018-07-23T08:50:05.289Z,69.40
2018-07-23T08:52:33.219Z,71.00
2018-07-23T08:55:01.133Z,67.70
2018-07-23T08:57:29.178Z,69.60
2018-07-23T08:59:57.004Z,68.50
2018-07-23T09:02:24.949Z,66.90
2018-07-23T09:04:52.767Z,66.80
2018-07-23T09:07:20.643Z,66.20
2018-07-23T09:09:48.623Z,65.00
2018-07-23T09:12:16.502Z,63.30
2018-07-23T09:14:44.420Z,65.00
2018-07-23T09:17:12.327Z,64.60
2018-07-23T09:19:40.220Z,64.60
2018-07-23T09:22:08.158Z,64.30
2018-07-23T09:24:36.156Z,63.50
2018-07-23T09:27:04.071Z,63.60
2018-07-23T09:29:36.451Z,62.60
2018-07-23T09:32:04.343Z,62.00
2018-07-23T09:34:32.204Z,60.70
2018-07-23T09:37:00.004Z,62.80
2018-07-23T09:39:27.826Z,62.80
2018-07-23T09:41:55.643Z,61.70
2018-07-23T09:44:23.509Z,62.20
2018-07-23T09:46:51.303Z,60.00
2018-07-23T09:49:19.050Z,59.60
2018-07-23T09:51:46.814Z,60.90
2018-07-23T09:54:15.598Z,60.20
2018-07-23T09:56:43.373Z,60.90
2018-07-23T09:59:11.404Z,61.60
2018-07-23T10:01:39.423Z,60.10
2018-07-23T10:04:07.225Z,60.80
2018-07-23T10:06:35.034Z,61.10
2018-07-23T10:09:02.963Z,60.60
2018-07-23T10:11:30.795Z,61.60
2018-07-23T10:13:58.600Z,60.70
2018-07-23T10:16:26.394Z,57.90
2018-07-23T10:18:54.155Z,59.40
2018-07-23T10:21:22.013Z,59.60
2018-07-23T10:23:49.775Z,59.90
2018-07-23T10:26:17.578Z,59.70
2018-07-23T10:28:45.348Z,58.90
2018-07-23T10:31:13.131Z,58.40
2018-07-23T10:33:40.877Z,59.40
2018-07-23T10:36:08.680Z,58.80
2018-07-23T10:38:36.503Z,57.00
2018-07-23T10:41:04.315Z,58.20
2018-07-23T10:43:32.131Z,57.70
2018-07-23T10:45:59.925Z,56.90
2018-07-23T10:48:36.006Z,57.00
2018-07-23T10:51:12.720Z,57.40
2018-07-23T10:53:40.603Z,56.70
2018-07-23T10:56:08.497Z,57.00
2018-07-23T10:58:36.415Z,56.50
2018-07-23T11:01:04.332Z,55.40
2018-07-23T11:03:32.207Z,56.60
2018-07-23T11:06:00.079Z,56.00
2018-07-23T11:08:27.963Z,54.60
2018-07-23T11:10:55.824Z,54.30
2018-07-23T11:13:23.680Z,53.70
2018-07-23T11:15:51.556Z,53.60
2018-07-23T11:18:19.501Z,53.00
2018-07-23T11:20:47.389Z,52.40
2018-07-23T11:23:15.298Z,53.70
2018-07-23T11:25:43.242Z,53.80
2018-07-23T11:28:11.195Z,53.40
2018-07-23T11:30:39.067Z,53.00
2018-07-23T11:33:06.974Z,53.40
2018-07-23T11:35:34.952Z,52.60
2018-07-23T11:38:02.873Z,51.60
2018-07-23T11:40:30.785Z,51.30
2018-07-23T11:42:58.752Z,50.70
2018-07-23T11:45:26.748Z,51.30
2018-07-23T11:47:54.654Z,52.10
2018-07-23T11:50:24.021Z,52.40
2018-07-23T11:52:51.909Z,53.20
2018-07-23T11:55:19.751Z,53.60
2018-07-23T11:57:47.584Z,53.30
2018-07-23T12:00:16.886Z,52.60
2018-07-23T12:02:45.101Z,51.40
2018-07-23T12:05:12.956Z,51.90
2018-07-23T12:07:40.810Z,50.50
2018-07-23T12:10:09.671Z,51.30
2018-07-23T12:12:37.549Z,50.30
2018-07-23T12:15:05.419Z,49.10
2018-07-23T12:17:33.365Z,50.90
2018-07-23T12:20:01.187Z,51.40
2018-07-23T12:22:28.937Z,51.10
2018-07-23T12:24:56.793Z,49.40
2018-07-23T12:27:39.228Z,47.90
2018-07-23T12:30:07.172Z,46.80
2018-07-23T12:32:34.989Z,49.80
2018-07-23T12:35:02.901Z,52.20
2018-07-23T12:37:30.818Z,54.60
2018-07-23T12:39:58.686Z,54.50
2018-07-23T12:42:26.544Z,55.90
2018-07-23T12:44:54.442Z,57.20
2018-07-23T12:47:22.376Z,57.10
2018-07-23T12:49:50.275Z,57.50
2018-07-23T12:52:18.230Z,59.20
2018-07-23T12:54:46.160Z,59.00
2018-07-23T12:57:13.975Z,59.00
2018-07-23T12:59:41.841Z,57.40
2018-07-23T13:02:09.757Z,57.20
2018-07-23T13:04:37.593Z,57.70
2018-07-23T13:07:05.415Z,57.50
2018-07-23T13:09:33.209Z,57.50
2018-07-23T13:12:01.093Z,56.80
2018-07-23T13:14:28.952Z,55.90
2018-07-23T13:16:56.826Z,56.10
2018-07-23T13:19:24.786Z,55.40
2018-07-23T13:21:52.914Z,55.80
2018-07-23T13:24:20.760Z,55.20
2018-07-23T13:26:48.568Z,54.10
2018-07-23T13:29:16.474Z,54.30
2018-07-23T13:31:44.379Z,52.10
2018-07-23T13:34:12.212Z,52.40
2018-07-23T13:36:40.045Z,51.40
2018-07-23T13:39:09.753Z,52.50
2018-07-23T13:41:37.557Z,52.60
2018-07-23T13:44:06.421Z,51.80
2018-07-23T13:46:34.331Z,51.40
2018-07-23T13:49:02.194Z,51.10
2018-07-23T13:51:30.047Z,50.20
2018-07-23T13:53:57.968Z,50.20
2018-07-23T13:56:25.805Z,50.00
2018-07-23T13:58:53.676Z,49.00
2018-07-23T14:01:21.549Z,49.00
2018-07-23T14:03:49.496Z,49.90
2018-07-23T14:06:17.309Z,50.10
2018-07-23T14:08:45.235Z,50.20
2018-07-23T14:11:13.137Z,50.10
2018-07-23T14:13:41.030Z,49.50
2018-07-23T14:16:09.006Z,50.20
2018-07-23T14:18:37.839Z,49.30
2018-07-23T14:21:05.817Z,48.90
2018-07-23T14:23:33.656Z,48.60
2018-07-23T14:26:01.677Z,50.00
2018-07-23T14:28:30.515Z,49.50
2018-07-23T14:30:58.408Z,49.40
2018-07-23T14:33:26.538Z,49.10
2018-07-23T14:35:54.684Z,49.30
2018-07-23T14:38:22.504Z,49.70
2018-07-23T14:40:50.369Z,50.10
2018-07-23T14:43:18.309Z,50.60
2018-07-23T14:45:46.177Z,50.90
2018-07-23T14:48:14.036Z,50.30
2018-07-23T14:50:43.050Z,51.00
2018-07-23T14:53:10.866Z,50.30
2018-07-23T14:55:38.774Z,50.10
2018-07-23T14:58:06.633Z,50.00
2018-07-23T15:00:34.632Z,50.30
2018-07-23T15:03:02.571Z,50.10
2018-07-23T15:05:31.468Z,50.00
2018-07-23T15:08:00.605Z,49.70
2018-07-23T15:10:28.456Z,50.00
2018-07-23T15:12:56.370Z,49.30
2018-07-23T15:15:45.383Z,49.50
2018-07-23T15:18:13.543Z,49.50
2018-07-23T15:20:41.438Z,50.00
2018-07-23T15:23:57.203Z,50.40
2018-07-23T15:26:25.129Z,49.40
2018-07-23T15:29:14.943Z,49.10
2018-07-23T15:31:42.896Z,48.60
2018-07-23T15:37:33.699Z,48.60
2018-07-23T15:40:45.719Z,49.00
2018-07-23T15:43:13.629Z,50.00
2018-07-23T15:45:42.718Z,50.50
2018-07-23T15:48:10.509Z,51.00
2018-07-23T15:50:43.911Z,51.20
2018-07-23T15:53:11.862Z,51.70
2018-07-23T15:55:44.393Z,50.90
2018-07-23T15:58:12.348Z,50.40
2018-07-23T16:01:07.327Z,49.90
2018-07-23T16:03:35.211Z,50.30
2018-07-23T16:06:09.031Z,50.80
2018-07-23T16:08:36.958Z,50.60
2018-07-23T16:11:27.773Z,50.60
2018-07-23T16:13:55.716Z,50.40
2018-07-23T16:17:00.048Z,50.50
2018-07-23T16:19:42.219Z,51.00
2018-07-23T16:22:10.212Z,51.50
2018-07-23T16:24:38.055Z,52.00
2018-07-23T16:27:05.957Z,51.70
2018-07-23T16:29:33.754Z,51.70
2018-07-23T16:32:01.682Z,51.80
2018-07-23T16:34:29.583Z,52.30
2018-07-23T16:36:59.488Z,52.90
2018-07-23T16:39:27.339Z,53.60
2018-07-23T16:41:55.294Z,55.10
2018-07-23T16:44:24.178Z,54.40
2018-07-23T16:46:52.068Z,54.60
2018-07-23T16:49:19.918Z,55.10
2018-07-23T16:51:47.872Z,55.30
2018-07-23T16:54:15.840Z,55.10
2018-07-23T16:56:43.833Z,56.20
2018-07-23T16:59:11.709Z,57.00
2018-07-23T17:01:39.596Z,57.50
2018-07-23T17:04:07.456Z,57.50
2018-07-23T17:06:35.398Z,58.00
2018-07-23T17:09:05.042Z,57.80
2018-07-23T17:11:32.968Z,58.50
2018-07-23T17:14:00.878Z,58.90
2018-07-23T17:16:28.756Z,59.30
2018-07-23T17:18:56.577Z,59.10
2018-07-23T17:21:24.403Z,60.10
2018-07-23T17:23:52.366Z,62.20
2018-07-23T17:26:20.237Z,63.60
2018-07-23T17:28:48.224Z,64.50
2018-07-23T17:31:17.132Z,66.10
2018-07-23T17:33:45.034Z,67.60
2018-07-23T17:36:12.988Z,67.50
2018-07-23T17:38:40.884Z,67.90
2018-07-23T17:41:13.242Z,69.20
2018-07-23T17:43:41.147Z,69.60
2018-07-23T17:46:17.751Z,70.30
2018-07-23T17:48:45.684Z,70.70
2018-07-23T17:51:41.896Z,69.20
2018-07-23T17:54:09.695Z,69.30
2018-07-23T17:57:08.291Z,69.70
2018-07-23T17:59:36.238Z,71.10
2018-07-23T18:02:04.275Z,71.80
2018-07-23T18:04:32.280Z,72.40
2018-07-23T18:07:11.487Z,72.80
2018-07-23T18:09:39.378Z,73.30
2018-07-23T18:12:34.486Z,74.30
2018-07-23T18:15:02.417Z,74.60
2018-07-23T18:17:33.658Z,75.00
2018-07-23T18:20:01.563Z,75.20
2018-07-23T18:22:34.767Z,76.20
2018-07-23T18:25:02.769Z,76.60
2018-07-23T18:27:31.628Z,77.30
2018-07-23T18:29:59.537Z,77.90
2018-07-23T18:32:27.474Z,78.40
2018-07-23T18:34:55.334Z,78.10
2018-07-23T18:37:23.216Z,77.90
2018-07-23T18:39:51.111Z,78.90
2018-07-23T18:42:18.995Z,79.70
2018-07-23T18:44:46.915Z,80.10
2018-07-23T18:47:14.874Z,80.40
2018-07-23T18:49:50.778Z,81.60
2018-07-23T18:52:19.391Z,81.10
2018-07-23T18:57:17.313Z,82.10
2018-07-23T18:59:45.281Z,83.40
2018-07-23T19:02:14.397Z,84.30
2018-07-23T19:04:42.374Z,85.00
2018-07-23T19:07:10.303Z,85.90
2018-07-23T19:09:38.186Z,86.30
2018-07-23T19:12:06.512Z,86.40
2018-07-23T19:14:34.412Z,87.20
2018-07-23T19:17:03.157Z,88.00
2018-07-23T19:19:31.065Z,88.70
2018-07-23T19:21:59.030Z,89.60
2018-07-23T19:24:26.977Z,89.50
2018-07-23T19:26:54.866Z,90.20
2018-07-23T19:29:22.814Z,90.50
2018-07-23T19:31:50.894Z,90.80
2018-07-23T19:34:18.833Z,91.10
2018-07-23T19:36:46.738Z,91.40
2018-07-23T19:39:15.811Z,91.70
2018-07-23T19:41:43.730Z,91.90
2018-07-23T19:44:11.855Z,92.20
2018-07-23T19:46:39.968Z,92.40
2018-07-23T19:49:07.867Z,93.00
2018-07-23T19:51:35.883Z,93.20
2018-07-23T19:54:03.917Z,93.20
2018-07-23T19:59:31.291Z,93.90
2018-07-23T20:01:59.104Z,93.90
2018-07-23T20:04:26.959Z,94.40
2018-07-23T20:06:54.836Z,94.60
2018-07-23T20:09:22.656Z,94.70
2018-07-23T20:11:51.518Z,95.50
2018-07-23T20:14:19.401Z,95.70
2018-07-23T20:16:48.244Z,96.40
2018-07-23T20:19:16.046Z,96.40
2018-07-23T20:21:46.324Z,96.30
2018-07-23T20:24:14.182Z,96.50
2018-07-23T20:26:42.033Z,96.30
2018-07-23T20:29:14.413Z,97.10
2018-07-23T20:31:42.227Z,97.40
2018-07-23T20:34:10.089Z,97.20
2018-07-23T20:36:38.160Z,97.50
2018-07-23T20:39:07.833Z,97.80
2018-07-23T20:41:35.859Z,97.60
2018-07-23T20:44:05.415Z,98.00
2018-07-23T20:46:33.306Z,98.40
2018-07-23T20:49:01.147Z,98.40
2018-07-23T20:52:12.445Z,98.70
2018-07-23T20:57:06.254Z,99.10
2018-07-23T20:59:34.213Z,99.10
2018-07-23T21:02:02.223Z,99.10
2018-07-23T21:04:30.216Z,99.50
2018-07-23T21:06:58.085Z,99.30
2018-07-23T21:09:25.883Z,99.30
2018-07-23T21:11:53.817Z,99.70
2018-07-23T21:14:22.743Z,99.90
2018-07-23T21:16:50.603Z,99.30
2018-07-23T21:19:18.599Z,99.90
2018-07-23T21:21:53.585Z,99.90
2018-07-23T21:24:21.561Z,99.90
2018-07-23T21:26:49.445Z,99.90
2018-07-23T21:29:17.322Z,99.90
2018-07-23T21:31:45.210Z,99.90
2018-07-23T21:34:13.009Z,99.90
2018-07-23T21:36:40.905Z,99.90
2018-07-23T21:39:09.619Z,99.90
2018-07-23T21:41:37.520Z,99.90
2018-07-23T21:44:05.358Z,99.90
2018-07-23T21:46:33.234Z,99.90
2018-07-23T21:49:01.117Z,99.90
2018-07-23T21:51:29.115Z,99.90
2018-07-23T21:53:56.994Z,99.90
2018-07-23T21:56:46.074Z,99.90
2018-07-23T21:59:26.782Z,99.90
2018-07-23T22:01:54.809Z,99.90
2018-07-23T22:04:22.814Z,99.90
2018-07-23T22:06:50.829Z,99.90
2018-07-23T22:09:18.716Z,99.90
2018-07-23T22:11:46.632Z,99.90
2018-07-23T22:14:14.711Z,99.90
2018-07-23T22:16:42.653Z,99.90
2018-07-23T22:19:10.759Z,99.90
2018-07-23T22:21:38.789Z,99.90
2018-07-23T22:24:06.708Z,99.90
2018-07-23T22:26:34.698Z,99.90
2018-07-23T22:29:02.785Z,99.90
2018-07-23T22:31:30.743Z,99.90
2018-07-23T22:33:58.728Z,99.90
2018-07-23T22:36:26.691Z,99.90
2018-07-23T22:38:54.677Z,99.90
2018-07-23T22:41:22.523Z,99.90
2018-07-23T22:43:50.458Z,99.90
2018-07-23T22:46:18.372Z,99.90
2018-07-23T22:48:46.299Z,99.90
2018-07-23T22:51:14.195Z,99.90
2018-07-23T22:53:42.132Z,99.90
2018-07-23T22:56:10.042Z,99.90
2018-07-23T22:58:38.076Z,99.90
2018-07-23T23:01:06.007Z,99.90
2018-07-23T23:03:33.907Z,99.90
2018-07-23T23:06:01.768Z,99.90
2018-07-23T23:08:29.708Z,99.90
2018-07-23T23:10:57.571Z,99.90
2018-07-23T23:13:25.487Z,99.90
2018-07-23T23:15:53.360Z,99.90
2018-07-23T23:18:21.186Z,99.90
2018-07-23T23:20:49.171Z,99.90
2018-07-23T23:23:17.002Z,99.90
2018-07-23T23:25:44.853Z,99.90
2018-07-23T23:28:12.717Z,99.90
2018-07-23T23:30:40.531Z,99.90
2018-07-23T23:33:08.378Z,99.90
2018-07-23T23:35:36.224Z,99.90
2018-07-23T23:38:04.088Z,99.90
2018-07-23T23:40:31.904Z,99.90
2018-07-23T23:42:59.736Z,99.90
2018-07-23T23:45:27.570Z,99.90
2018-07-23T23:47:55.394Z,99.90
2018-07-23T23:50:23.255Z,99.90
2018-07-23T23:52:51.100Z,99.90
2018-07-23T23:55:18.962Z,99.90
2018-07-23T23:58:27.968Z,99.90
